CheckWX is a tool to help pilots better visualize weather data.  It is not intended as a substitute for an official pre-flight weather briefing.

12:18:14 UTC

HKML METAR
Malindi Airport
Malindi, Kenya
Current

15 hours ago

HKML 212100Z 09007KT 9999 FEW021 28/24 Q1012
Observed
Feb-21 @ 21:00 UTC
Wind
  • 090° at 7 KTS
Visibility
10,000+ meters
Flight Rules
VFR
Cloud Levels
  • Few at 2,100' AGL
Temperature
28°C / 82°F
Dewpoint
24°C / 75°F
Humidity
79%
Altimeter
29.88" Hg
Pressure
1011.92 hPa
Previous

16 hours ago

HKML 212000Z 07006KT 9999 FEW022 28/24 Q1012
Observed
Feb-21 @ 20:00 UTC
Wind
  • 070° at 6 KTS
Visibility
10,000+ meters
Flight Rules
VFR
Cloud Levels
  • Few at 2,200' AGL
Temperature
28°C / 82°F
Dewpoint
24°C / 75°F
Humidity
79%
Altimeter
29.88" Hg
Pressure
1011.92 hPa
Previous

20 hours ago

HKML 211600Z 11010KT 9999 FEW024 29/23 Q1010
Observed
Feb-21 @ 16:00 UTC
Wind
  • 110° at 10 KTS
Visibility
10,000+ meters
Flight Rules
VFR
Cloud Levels
  • Few at 2,400' AGL
Temperature
29°C / 84°F
Dewpoint
23°C / 73°F
Humidity
70%
Altimeter
29.82" Hg
Pressure
1009.92 hPa